Orfeas — C6WM6 — position and weather

sailwx.info

Track history (hours):
 
Tides and Currents Weather Stations Pressure Air Temp Water Temp Dewpoint Dewpoint Depression Visibility Wind Speed Wind Dir Waves Ship Positions

Orfeas

Last reported at 2018-Aug-06 01:48 UTC. Time now 2018-Aug-19 22:53 UTC.
Position N 28°53' W 116°19'.
Warning: this ship's position is 13 days out of date.

Length 228 m; draft 8.3 m.

Type: Tanker. MMSI: 309286000.

Date/timePositionNaut miles runAvg speedWind from/ knotsBaromVisibWave heightAir tempDewpointWater temp
2018-Aug-06 01:48N 28°53' W 116°19'413.0
2018-Aug-06 01:28N 28°57' W 116°20'712.8
2018-Aug-06 00:57N 29°03' W 116°23'5412.9
2018-Aug-05 20:44N 29°54' W 116°43'313.6
2018-Aug-05 20:30N 29°57' W 116°44'713.3
2018-Aug-05 20:00N 30°04' W 116°47'813.1
2018-Aug-05 19:23N 30°11' W 116°50'512.7
2018-Aug-05 19:00N 30°16' W 116°52'912.3
2018-Aug-05 18:17N 30°24' W 116°55'412.2
2018-Aug-05 17:59N 30°28' W 116°57'612.1
2018-Aug-05 17:30N 30°33' W 116°59'711.8
2018-Aug-05 16:55N 30°40' W 117°01'611.8
2018-Aug-05 16:25N 30°45' W 117°03'1011.8
2018-Aug-05 15:35N 30°55' W 117°07'111.8
2018-Aug-05 15:30N 30°55' W 117°08'711.9
2018-Aug-05 14:57N 31°02' W 117°10'1412.0
2018-Aug-05 13:45N 31°15' W 117°16'312.9
2018-Aug-05 13:30N 31°18' W 117°18'812.7
2018-Aug-05 12:54N 31°25' W 117°20'512.7
2018-Aug-05 12:30N 31°30' W 117°22'612.6
2018-Aug-05 12:00N 31°36' W 117°24'612.9
2018-Aug-05 11:30N 31°42' W 117°27'613.0
2018-Aug-05 11:00N 31°48' W 117°29'713.0
2018-Aug-05 10:30N 31°55' W 117°32'612.9
2018-Aug-05 10:00N 32°01' W 117°34'612.8
2018-Aug-05 09:30N 32°07' W 117°37'612.3
2018-Aug-05 09:00N 32°12' W 117°39'612.1
2018-Aug-05 08:30N 32°18' W 117°42'612.2
2018-Aug-05 08:00N 32°24' W 117°44'612.5
2018-Aug-05 07:30N 32°30' W 117°47'612.4
2018-Aug-05 07:00N 32°35' W 117°49'612.8
2018-Aug-05 06:30N 32°42' W 117°52'713.3
2018-Aug-05 05:59N 32°48' W 117°55'613.1
2018-Aug-05 05:30N 32°54' W 117°57'713.1
2018-Aug-05 05:00N 33°00' W 117°59'713.2
2018-Aug-05 04:30N 33°07' W 118°01'713.2
2018-Aug-05 04:00N 33°13' W 118°04'713.0
2018-Aug-05 03:30N 33°19' W 118°06'612.9
2018-Aug-05 03:00N 33°25' W 118°09'612.8
2018-Aug-05 02:30N 33°31' W 118°12'612.0
2018-Aug-05 02:00N 33°37' W 118°13'611.5
2018-Aug-05 01:30N 33°43' W 118°11'2 4.3
2018-Aug-05 01:00N 33°43' W 118°14'0 0.3
2018-Aug-05 00:28N 33°43' W 118°14'0 0.1
2018-Aug-04 23:58N 33°43' W 118°14'0 0.1
2018-Aug-04 23:25N 33°43' W 118°14'0 0.0
2018-Aug-04 22:58N 33°43' W 118°14'0 0.1
2018-Aug-04 22:28N 33°43' W 118°14'0 0.1
2018-Aug-04 21:58N 33°43' W 118°14'0 0.1
2018-Aug-04 21:28N 33°43' W 118°14'0 0.1
2018-Aug-04 20:58N 33°43' W 118°14'0 0.1
2018-Aug-04 20:28N 33°43' W 118°14'0 0.0
2018-Aug-04 19:58N 33°43' W 118°14'0 0.0
2018-Aug-04 19:25N 33°43' W 118°14'0 0.1
2018-Aug-04 18:58N 33°43' W 118°14'0 0.0
2018-Aug-04 18:28N 33°43' W 118°14'0 0.1
2018-Aug-04 17:58N 33°43' W 118°14'0 0.1
2018-Aug-04 17:28N 33°43' W 118°14'0 0.0
2018-Aug-04 16:58N 33°43' W 118°14'0 0.0
2018-Aug-04 16:28N 33°43' W 118°14'0 0.1
2018-Aug-04 15:55N 33°43' W 118°14'0 0.0
2018-Aug-04 15:28N 33°43' W 118°14'0 0.1
2018-Aug-04 14:52N 33°43' W 118°14'0 0.0
2018-Aug-04 14:28N 33°43' W 118°14'0 0.0
2018-Aug-04 13:55N 33°43' W 118°14'0 0.0
2018-Aug-04 13:28N 33°43' W 118°14'0 0.0
2018-Aug-04 12:55N 33°43' W 118°14'0 0.0
2018-Aug-04 12:28N 33°43' W 118°14'0 0.2
2018-Aug-04 11:55N 33°43' W 118°14'0 0.2
2018-Aug-04 11:28N 33°43' W 118°14'0 0.2
2018-Aug-04 10:58N 33°43' W 118°14'0 0.1
2018-Aug-04 10:28N 33°43' W 118°14'0 0.0
2018-Aug-04 09:58N 33°43' W 118°14'0 0.0
2018-Aug-04 09:28N 33°43' W 118°14'0 0.0
2018-Aug-04 08:58N 33°43' W 118°14'0 0.0
2018-Aug-04 08:28N 33°43' W 118°14'2 4.3
2018-Aug-04 08:00N 33°43' W 118°16'2 4.3
2018-Aug-04 07:30N 33°46' W 118°16'0 0.0
2018-Aug-04 07:00N 33°46' W 118°16'0 0.0
2018-Aug-04 06:30N 33°46' W 118°16'0 0.0
2018-Aug-04 06:00N 33°46' W 118°16'0 0.0
2018-Aug-04 05:30N 33°46' W 118°16'0 0.0
2018-Aug-04 05:00N 33°46' W 118°16'0 0.0
2018-Aug-04 04:27N 33°46' W 118°16'0 0.0
2018-Aug-04 04:00N 33°46' W 118°16'0 0.0
2018-Aug-04 03:30N 33°46' W 118°16'0 0.0
2018-Aug-04 02:57N 33°46' W 118°16'0 0.0
2018-Aug-04 02:30N 33°46' W 118°16'0 0.0
2018-Aug-04 02:00N 33°46' W 118°16'0 0.0
2018-Aug-04 01:27N 33°46' W 118°16'0 0.0
2018-Aug-04 01:00N 33°46' W 118°16'0 0.0
2018-Aug-04 00:30N 33°46' W 118°16'0 0.0
2018-Aug-04 00:00N 33°46' W 118°16'0 0.0
2018-Aug-03 23:30N 33°46' W 118°16'0 0.0
2018-Aug-03 23:00N 33°46' W 118°16'0 0.0
2018-Aug-03 22:30N 33°46' W 118°16'0 0.0
2018-Aug-03 22:00N 33°46' W 118°16'0 0.0
2018-Aug-03 21:30N 33°46' W 118°16'0 0.0
2018-Aug-03 21:00N 33°46' W 118°16'0 0.0
2018-Aug-03 20:30N 33°46' W 118°16'0 0.0
2018-Aug-03 20:00N 33°46' W 118°16'0 0.0
2018-Aug-03 19:30N 33°46' W 118°16'0 0.0
2018-Aug-03 19:00N 33°46' W 118°16'0 0.0
2018-Aug-03 18:30N 33°46' W 118°16'0 0.0
2018-Aug-03 17:57N 33°46' W 118°16'0 0.0
2018-Aug-03 17:30N 33°46' W 118°16'0 0.0
2018-Aug-03 17:00N 33°46' W 118°16'0 0.0
2018-Aug-03 16:27N 33°46' W 118°16'0 0.0
2018-Aug-03 16:00N 33°46' W 118°16'0 0.0
2018-Aug-03 15:27N 33°46' W 118°16'0 0.0
2018-Aug-03 14:57N 33°46' W 118°16'0 0.0
2018-Aug-03 14:30N 33°46' W 118°16'0 0.0
2018-Aug-03 13:57N 33°46' W 118°16'0 0.0
2018-Aug-03 13:30N 33°46' W 118°16'0 0.0
2018-Aug-03 13:00N 33°46' W 118°16'0 0.0
2018-Aug-03 12:30N 33°46' W 118°16'0 0.0
2018-Aug-03 12:00N 33°46' W 118°16'0 0.0
2018-Aug-03 11:30N 33°46' W 118°16'0 0.0
2018-Aug-03 11:00N 33°46' W 118°16'0 0.0
2018-Aug-03 10:30N 33°46' W 118°16'0 0.0
2018-Aug-03 10:00N 33°46' W 118°16'0 0.0
2018-Aug-03 09:30N 33°46' W 118°16'0 0.0
2018-Aug-03 09:00N 33°46' W 118°16'0 0.0
2018-Aug-03 08:30N 33°46' W 118°16'0 0.0
2018-Aug-03 08:00N 33°46' W 118°16'0 0.0
2018-Aug-03 07:30N 33°46' W 118°16'0 0.0
2018-Aug-03 07:00N 33°46' W 118°16'0 0.0
2018-Aug-03 06:30N 33°46' W 118°16'0 0.0
2018-Aug-03 06:00N 33°46' W 118°16'0 0.0
2018-Aug-03 05:30N 33°46' W 118°16'0 0.0
2018-Aug-03 05:00N 33°46' W 118°16'0 0.0
2018-Aug-03 04:30N 33°46' W 118°16'0 0.0
2018-Aug-03 03:57N 33°46' W 118°16'0 0.0
2018-Aug-03 03:30N 33°46' W 118°16'0 0.0
2018-Aug-03 03:00N 33°46' W 118°16'0 0.0
2018-Aug-03 02:30N 33°46' W 118°16'0 0.0
2018-Aug-03 02:00N 33°46' W 118°16'0 0.0
2018-Aug-03 01:30N 33°46' W 118°16'0 0.0
2018-Aug-03 01:00N 33°46' W 118°16'0 0.0
2018-Aug-03 00:30N 33°46' W 118°16'0 0.0
2018-Aug-03 00:00N 33°46' W 118°16'0 0.0
2018-Aug-02 23:30N 33°46' W 118°16'0 0.0
2018-Aug-02 23:00N 33°46' W 118°16'0 0.0
2018-Aug-02 22:30N 33°46' W 118°16'0 0.0
2018-Aug-02 22:00N 33°46' W 118°16'0 0.0
2018-Aug-02 21:30N 33°46' W 118°16'0 0.0
2018-Aug-02 20:57N 33°46' W 118°16'0 0.0
2018-Aug-02 20:30N 33°46' W 118°16'0 0.0
2018-Aug-02 20:00N 33°46' W 118°16'0 0.0
2018-Aug-02 19:30N 33°46' W 118°16'0 0.0
2018-Aug-02 18:57N 33°46' W 118°16'0 0.0
2018-Aug-02 18:30N 33°46' W 118°16'0 0.0
2018-Aug-02 18:00N 33°46' W 118°16'0 0.0
2018-Aug-02 17:30N 33°46' W 118°16'0 0.0
2018-Aug-02 17:00N 33°46' W 118°16'0 0.0
2018-Aug-02 16:30N 33°46' W 118°16'0 0.0
2018-Aug-02 16:00N 33°46' W 118°16'0 0.0
2018-Aug-02 15:30N 33°46' W 118°16'0 0.0
2018-Aug-02 14:57N 33°46' W 118°16'0 0.0
2018-Aug-02 14:30N 33°46' W 118°16'0 0.0
2018-Aug-02 13:57N 33°46' W 118°16'0 0.0
2018-Aug-02 13:30N 33°46' W 118°16'0 0.0
2018-Aug-02 13:00N 33°46' W 118°16'0 0.0
2018-Aug-02 12:24N 33°46' W 118°16'0 0.0
2018-Aug-02 12:00N 33°46' W 118°16'0 0.0
2018-Aug-02 11:30N 33°46' W 118°16'0 0.0
2018-Aug-02 10:57N 33°46' W 118°16'0 0.0
2018-Aug-02 10:21N 33°46' W 118°16'0 0.0
2018-Aug-02 09:57N 33°46' W 118°16'0 0.0
2018-Aug-02 09:30N 33°46' W 118°16'0 0.0
2018-Aug-02 08:57N 33°46' W 118°16'0 0.0
2018-Aug-02 08:27N 33°46' W 118°16'0 0.0
2018-Aug-02 08:00N 33°46' W 118°16'0 0.0
2018-Aug-02 07:30N 33°46' W 118°16'0 0.0
2018-Aug-02 06:54N 33°46' W 118°16'0 0.0
2018-Aug-02 06:30N 33°46' W 118°16'0 0.0
2018-Aug-02 06:00N 33°46' W 118°16'0 0.0
2018-Aug-02 05:30N 33°46' W 118°16'0 0.0
2018-Aug-02 05:00N 33°46' W 118°16'0 0.0
2018-Aug-02 04:30N 33°46' W 118°16'0 0.0
2018-Aug-02 04:00N 33°46' W 118°16'0 0.0
2018-Aug-02 03:30N 33°46' W 118°16'0 0.0
2018-Aug-02 03:00N 33°46' W 118°16'0 0.9
2018-Aug-02 02:30N 33°45' W 118°16'1 2.9
2018-Aug-02 02:00N 33°44' W 118°16'3 5.4
2018-Aug-02 01:30N 33°43' W 118°13'2 4.7
2018-Aug-02 01:00N 33°46' W 118°13'1 0.9
2018-Aug-02 00:19N 33°46' W 118°13'0 0.0
2018-Aug-01 23:58N 33°46' W 118°13'0 0.0
2018-Aug-01 23:22N 33°46' W 118°13'0 0.0
2018-Aug-01 22:52N 33°46' W 118°13'0 0.0
2018-Aug-01 22:19N 33°46' W 118°13'0 0.0
2018-Aug-01 21:55N 33°46' W 118°13'0 0.0
2018-Aug-01 21:28N 33°46' W 118°13'0 0.0
2018-Aug-01 20:49N 33°46' W 118°13'0 0.0
2018-Aug-01 20:25N 33°46' W 118°13'0 0.0
2018-Aug-01 19:58N 33°46' W 118°13'0 0.0
2018-Aug-01 19:25N 33°46' W 118°13'0 0.0
2018-Aug-01 18:43N 33°46' W 118°13'0 0.0
2018-Aug-01 18:28N 33°46' W 118°13'0 0.0
2018-Aug-01 17:58N 33°46' W 118°13'0 0.0
2018-Aug-01 17:28N 33°46' W 118°13'0 0.0
2018-Aug-01 16:49N 33°46' W 118°13'0 0.0
2018-Aug-01 16:25N 33°46' W 118°13'0 0.0
2018-Aug-01 15:58N 33°46' W 118°13'0 0.0
2018-Aug-01 15:07N 33°46' W 118°13'0 0.0
2018-Aug-01 14:58N 33°46' W 118°13'0 0.0
2018-Aug-01 13:52N 33°46' W 118°13'0 0.0
2018-Aug-01 13:25N 33°46' W 118°13'0 0.0
2018-Aug-01 12:55N 33°46' W 118°13'0 0.0
2018-Aug-01 11:55N 33°46' W 118°13'0 0.0
2018-Aug-01 11:25N 33°46' W 118°13'0 0.0
2018-Aug-01 10:55N 33°46' W 118°13'0 0.0
2018-Aug-01 10:19N 33°46' W 118°13'0 0.0
2018-Aug-01 09:34N 33°46' W 118°13'0 0.0
2018-Aug-01 09:28N 33°46' W 118°13'0 0.0
2018-Aug-01 08:58N 33°46' W 118°13'0 0.0
2018-Aug-01 07:40N 33°46' W 118°13'0 0.0
2018-Aug-01 07:28N 33°46' W 118°13'0 0.0
2018-Aug-01 06:52N 33°46' W 118°13'0 0.0
2018-Aug-01 06:28N 33°46' W 118°13'0 0.0
2018-Aug-01 05:52N 33°46' W 118°13'0 0.0
2018-Aug-01 05:19N 33°46' W 118°13'0 0.0
2018-Aug-01 04:58N 33°46' W 118°13'0 0.0
2018-Aug-01 04:25N 33°46' W 118°13'0 0.0
2018-Aug-01 03:52N 33°46' W 118°13'0 0.0
2018-Aug-01 03:22N 33°46' W 118°13'0 0.0
2018-Aug-01 02:55N 33°46' W 118°13'0 0.0
2018-Aug-01 02:28N 33°46' W 118°13'0 0.0
2018-Aug-01 01:49N 33°46' W 118°13'0 0.0
2018-Aug-01 01:28N 33°46' W 118°13'0 0.0
2018-Aug-01 00:52N 33°46' W 118°13'0 0.0
2018-Jul-31 22:28N 33°46' W 118°13'0 0.0
2018-Jul-31 21:46N 33°46' W 118°13'0 0.0
2018-Jul-31 21:25N 33°46' W 118°13'0 0.0
2018-Jul-31 20:58N 33°46' W 118°13'0 0.0
2018-Jul-31 20:28N 33°46' W 118°13'0 0.0
2018-Jul-31 19:58N 33°46' W 118°13'0 0.0
2018-Jul-31 19:22N 33°46' W 118°13'0 0.0
2018-Jul-31 18:55N 33°46' W 118°13'0 0.0
2018-Jul-31 18:22N 33°46' W 118°13'0 0.0
2018-Jul-31 17:46N 33°46' W 118°13'0 0.0
2018-Jul-31 17:28N 33°46' W 118°13'0 0.0
2018-Jul-31 16:52N 33°46' W 118°13'0 0.4
2018-Jul-31 16:30N 33°46' W 118°13'1 2.8
2018-Jul-31 16:00N 33°45' W 118°13'3 5.7
2018-Jul-31 15:30N 33°43' W 118°11'3 5.9
2018-Jul-31 15:00N 33°40' W 118°12'3 5.2
2018-Jul-31 14:30N 33°38' W 118°14'3 5.3
2018-Jul-31 14:00N 33°36' W 118°16'3 5.5
2018-Jul-31 13:30N 33°36' W 118°20'3 5.4
2018-Jul-31 13:00N 33°36' W 118°23'3 5.4
2018-Jul-31 12:30N 33°36' W 118°26'3 5.4
2018-Jul-31 12:00N 33°36' W 118°29'3 5.3
2018-Jul-31 11:30N 33°36' W 118°32'3 6.3
2018-Jul-31 11:00N 33°36' W 118°36'3 6.0
2018-Jul-31 10:30N 33°37' W 118°40'3 6.0
2018-Jul-31 10:00N 33°37' W 118°43'3 5.9
2018-Jul-31 09:30N 33°37' W 118°47'4 8.0
2018-Jul-31 09:00N 33°37' W 118°52'611.4
2018-Jul-31 08:30N 33°37' W 118°59'611.4
2018-Jul-31 08:00N 33°38' W 119°05'611.8
2018-Jul-31 07:30N 33°37' W 119°13'611.5
2018-Jul-31 06:58N 33°37' W 119°20'511.3
2018-Jul-31 06:30N 33°37' W 119°26'611.5
2018-Jul-31 06:00N 33°37' W 119°33'611.7
2018-Jul-31 05:30N 33°37' W 119°40'611.4
2018-Jul-31 05:00N 33°37' W 119°47'611.5
2018-Jul-31 04:30N 33°36' W 119°54'611.7
2018-Jul-31 04:00N 33°36' W 120°01'611.3
2018-Jul-31 03:30N 33°36' W 120°08'611.3
2018-Jul-31 03:00N 33°36' W 120°15'611.0
2018-Jul-31 02:30N 33°36' W 120°21'510.1
2018-Jul-31 02:00N 33°36' W 120°27'4 7.9
2018-Jul-31 01:30N 33°36' W 120°32'611.8
2018-Jul-31 01:00N 33°37' W 120°39'612.1
2018-Jul-31 00:30N 33°37' W 120°46'712.5
2018-Jul-30 23:58N 33°38' W 120°54'612.4
2018-Jul-30 23:30N 33°38' W 121°01'712.2
2018-Jul-30 22:57N 33°38' W 121°09'612.1
2018-Jul-30 22:30N 33°38' W 121°16'611.9
2018-Jul-30 22:00N 33°39' W 121°23'612.0
2018-Jul-30 21:30N 33°39' W 121°30'612.3
2018-Jul-30 21:00N 33°39' W 121°38'712.4
2018-Jul-30 20:28N 33°40' W 121°45'612.3
2018-Jul-30 19:59N 33°40' W 121°53'612.1
2018-Jul-30 19:30N 33°40' W 121°60'5212.1
2018-Jul-30 15:15N 33°44' W 123°02'312.2
2018-Jul-30 15:00N 33°44' W 123°05'712.4
2018-Jul-30 14:25N 33°44' W 123°14'1712.3
2018-Jul-30 13:02N 33°45' W 123°34'9511.7
2018-Jul-30 04:55N 33°59' W 125°27'7 1.0
2018-Jul-29 21:42N 34°05' W 125°24'0 0.5
2018-Jul-29 21:29N 34°05' W 125°24'  
Track history (hours):
 
Tides and Currents Weather Stations Pressure Air Temp Water Temp Dewpoint Dewpoint Depression Visibility Wind Speed Wind Dir Waves Ship Positions

Orfeas

Last reported at 2018-Aug-06 01:48 UTC. Time now 2018-Aug-19 22:53 UTC.
Position N 28°53' W 116°19'.
Warning: this ship's position is 13 days out of date.

Length 228 m; draft 8.3 m.

Type: Tanker. MMSI: 309286000.

Date/timePositionNaut miles runAvg speedWind from/ knotsBaromVisibWave heightAir tempDewpointWater temp
2018-Aug-06 01:48N 28°53' W 116°19'413.0
2018-Aug-06 01:28N 28°57' W 116°20'712.8
2018-Aug-06 00:57N 29°03' W 116°23'5412.9
2018-Aug-05 20:44N 29°54' W 116°43'313.6
2018-Aug-05 20:30N 29°57' W 116°44'713.3
2018-Aug-05 20:00N 30°04' W 116°47'813.1
2018-Aug-05 19:23N 30°11' W 116°50'512.7
2018-Aug-05 19:00N 30°16' W 116°52'912.3
2018-Aug-05 18:17N 30°24' W 116°55'412.2
2018-Aug-05 17:59N 30°28' W 116°57'612.1
2018-Aug-05 17:30N 30°33' W 116°59'711.8
2018-Aug-05 16:55N 30°40' W 117°01'611.8
2018-Aug-05 16:25N 30°45' W 117°03'1011.8
2018-Aug-05 15:35N 30°55' W 117°07'111.8
2018-Aug-05 15:30N 30°55' W 117°08'711.9
2018-Aug-05 14:57N 31°02' W 117°10'1412.0
2018-Aug-05 13:45N 31°15' W 117°16'312.9
2018-Aug-05 13:30N 31°18' W 117°18'812.7
2018-Aug-05 12:54N 31°25' W 117°20'512.7
2018-Aug-05 12:30N 31°30' W 117°22'612.6
2018-Aug-05 12:00N 31°36' W 117°24'612.9
2018-Aug-05 11:30N 31°42' W 117°27'613.0
2018-Aug-05 11:00N 31°48' W 117°29'713.0
2018-Aug-05 10:30N 31°55' W 117°32'612.9
2018-Aug-05 10:00N 32°01' W 117°34'612.8
2018-Aug-05 09:30N 32°07' W 117°37'612.3
2018-Aug-05 09:00N 32°12' W 117°39'612.1
2018-Aug-05 08:30N 32°18' W 117°42'612.2
2018-Aug-05 08:00N 32°24' W 117°44'612.5
2018-Aug-05 07:30N 32°30' W 117°47'612.4
2018-Aug-05 07:00N 32°35' W 117°49'612.8
2018-Aug-05 06:30N 32°42' W 117°52'713.3
2018-Aug-05 05:59N 32°48' W 117°55'613.1
2018-Aug-05 05:30N 32°54' W 117°57'713.1
2018-Aug-05 05:00N 33°00' W 117°59'713.2
2018-Aug-05 04:30N 33°07' W 118°01'713.2
2018-Aug-05 04:00N 33°13' W 118°04'713.0
2018-Aug-05 03:30N 33°19' W 118°06'612.9
2018-Aug-05 03:00N 33°25' W 118°09'612.8
2018-Aug-05 02:30N 33°31' W 118°12'612.0
2018-Aug-05 02:00N 33°37' W 118°13'611.5
2018-Aug-05 01:30N 33°43' W 118°11'2 4.3
2018-Aug-05 01:00N 33°43' W 118°14'0 0.3
2018-Aug-05 00:28N 33°43' W 118°14'0 0.1
2018-Aug-04 23:58N 33°43' W 118°14'0 0.1
2018-Aug-04 23:25N 33°43' W 118°14'0 0.0
2018-Aug-04 22:58N 33°43' W 118°14'0 0.1
2018-Aug-04 22:28N 33°43' W 118°14'0 0.1
2018-Aug-04 21:58N 33°43' W 118°14'0 0.1
2018-Aug-04 21:28N 33°43' W 118°14'0 0.1
2018-Aug-04 20:58N 33°43' W 118°14'0 0.1
2018-Aug-04 20:28N 33°43' W 118°14'0 0.0
2018-Aug-04 19:58N 33°43' W 118°14'0 0.0
2018-Aug-04 19:25N 33°43' W 118°14'0 0.1
2018-Aug-04 18:58N 33°43' W 118°14'0 0.0
2018-Aug-04 18:28N 33°43' W 118°14'0 0.1
2018-Aug-04 17:58N 33°43' W 118°14'0 0.1
2018-Aug-04 17:28N 33°43' W 118°14'0 0.0
2018-Aug-04 16:58N 33°43' W 118°14'0 0.0
2018-Aug-04 16:28N 33°43' W 118°14'0 0.1
2018-Aug-04 15:55N 33°43' W 118°14'0 0.0
2018-Aug-04 15:28N 33°43' W 118°14'0 0.1
2018-Aug-04 14:52N 33°43' W 118°14'0 0.0
2018-Aug-04 14:28N 33°43' W 118°14'0 0.0
2018-Aug-04 13:55N 33°43' W 118°14'0 0.0
2018-Aug-04 13:28N 33°43' W 118°14'0 0.0
2018-Aug-04 12:55N 33°43' W 118°14'0 0.0
2018-Aug-04 12:28N 33°43' W 118°14'0 0.2
2018-Aug-04 11:55N 33°43' W 118°14'0 0.2
2018-Aug-04 11:28N 33°43' W 118°14'0 0.2
2018-Aug-04 10:58N 33°43' W 118°14'0 0.1
2018-Aug-04 10:28N 33°43' W 118°14'0 0.0
2018-Aug-04 09:58N 33°43' W 118°14'0 0.0
2018-Aug-04 09:28N 33°43' W 118°14'0 0.0
2018-Aug-04 08:58N 33°43' W 118°14'0 0.0
2018-Aug-04 08:28N 33°43' W 118°14'2 4.3
2018-Aug-04 08:00N 33°43' W 118°16'2 4.3
2018-Aug-04 07:30N 33°46' W 118°16'0 0.0
2018-Aug-04 07:00N 33°46' W 118°16'0 0.0
2018-Aug-04 06:30N 33°46' W 118°16'0 0.0
2018-Aug-04 06:00N 33°46' W 118°16'0 0.0
2018-Aug-04 05:30N 33°46' W 118°16'0 0.0
2018-Aug-04 05:00N 33°46' W 118°16'0 0.0
2018-Aug-04 04:27N 33°46' W 118°16'0 0.0
2018-Aug-04 04:00N 33°46' W 118°16'0 0.0
2018-Aug-04 03:30N 33°46' W 118°16'0 0.0
2018-Aug-04 02:57N 33°46' W 118°16'0 0.0
2018-Aug-04 02:30N 33°46' W 118°16'0 0.0
2018-Aug-04 02:00N 33°46' W 118°16'0 0.0
2018-Aug-04 01:27N 33°46' W 118°16'0 0.0
2018-Aug-04 01:00N 33°46' W 118°16'0 0.0
2018-Aug-04 00:30N 33°46' W 118°16'0 0.0
2018-Aug-04 00:00N 33°46' W 118°16'0 0.0
2018-Aug-03 23:30N 33°46' W 118°16'0 0.0
2018-Aug-03 23:00N 33°46' W 118°16'0 0.0
2018-Aug-03 22:30N 33°46' W 118°16'0 0.0
2018-Aug-03 22:00N 33°46' W 118°16'0 0.0
2018-Aug-03 21:30N 33°46' W 118°16'0 0.0
2018-Aug-03 21:00N 33°46' W 118°16'0 0.0
2018-Aug-03 20:30N 33°46' W 118°16'0 0.0
2018-Aug-03 20:00N 33°46' W 118°16'0 0.0
2018-Aug-03 19:30N 33°46' W 118°16'0 0.0
2018-Aug-03 19:00N 33°46' W 118°16'0 0.0
2018-Aug-03 18:30N 33°46' W 118°16'0 0.0
2018-Aug-03 17:57N 33°46' W 118°16'0 0.0
2018-Aug-03 17:30N 33°46' W 118°16'0 0.0
2018-Aug-03 17:00N 33°46' W 118°16'0 0.0
2018-Aug-03 16:27N 33°46' W 118°16'0 0.0
2018-Aug-03 16:00N 33°46' W 118°16'0 0.0
2018-Aug-03 15:27N 33°46' W 118°16'0 0.0
2018-Aug-03 14:57N 33°46' W 118°16'0 0.0
2018-Aug-03 14:30N 33°46' W 118°16'0 0.0
2018-Aug-03 13:57N 33°46' W 118°16'0 0.0
2018-Aug-03 13:30N 33°46' W 118°16'0 0.0
2018-Aug-03 13:00N 33°46' W 118°16'0 0.0
2018-Aug-03 12:30N 33°46' W 118°16'0 0.0
2018-Aug-03 12:00N 33°46' W 118°16'0 0.0
2018-Aug-03 11:30N 33°46' W 118°16'0 0.0
2018-Aug-03 11:00N 33°46' W 118°16'0 0.0
2018-Aug-03 10:30N 33°46' W 118°16'0 0.0
2018-Aug-03 10:00N 33°46' W 118°16'0 0.0
2018-Aug-03 09:30N 33°46' W 118°16'0 0.0
2018-Aug-03 09:00N 33°46' W 118°16'0 0.0
2018-Aug-03 08:30N 33°46' W 118°16'0 0.0
2018-Aug-03 08:00N 33°46' W 118°16'0 0.0
2018-Aug-03 07:30N 33°46' W 118°16'0 0.0
2018-Aug-03 07:00N 33°46' W 118°16'0 0.0
2018-Aug-03 06:30N 33°46' W 118°16'0 0.0
2018-Aug-03 06:00N 33°46' W 118°16'0 0.0
2018-Aug-03 05:30N 33°46' W 118°16'0 0.0
2018-Aug-03 05:00N 33°46' W 118°16'0 0.0
2018-Aug-03 04:30N 33°46' W 118°16'0 0.0
2018-Aug-03 03:57N 33°46' W 118°16'0 0.0
2018-Aug-03 03:30N 33°46' W 118°16'0 0.0
2018-Aug-03 03:00N 33°46' W 118°16'0 0.0
2018-Aug-03 02:30N 33°46' W 118°16'0 0.0
2018-Aug-03 02:00N 33°46' W 118°16'0 0.0
2018-Aug-03 01:30N 33°46' W 118°16'0 0.0
2018-Aug-03 01:00N 33°46' W 118°16'0 0.0
2018-Aug-03 00:30N 33°46' W 118°16'0 0.0
2018-Aug-03 00:00N 33°46' W 118°16'0 0.0
2018-Aug-02 23:30N 33°46' W 118°16'0 0.0
2018-Aug-02 23:00N 33°46' W 118°16'0 0.0
2018-Aug-02 22:30N 33°46' W 118°16'0 0.0
2018-Aug-02 22:00N 33°46' W 118°16'0 0.0
2018-Aug-02 21:30N 33°46' W 118°16'0 0.0
2018-Aug-02 20:57N 33°46' W 118°16'0 0.0
2018-Aug-02 20:30N 33°46' W 118°16'0 0.0
2018-Aug-02 20:00N 33°46' W 118°16'0 0.0
2018-Aug-02 19:30N 33°46' W 118°16'0 0.0
2018-Aug-02 18:57N 33°46' W 118°16'0 0.0
2018-Aug-02 18:30N 33°46' W 118°16'0 0.0
2018-Aug-02 18:00N 33°46' W 118°16'0 0.0
2018-Aug-02 17:30N 33°46' W 118°16'0 0.0
2018-Aug-02 17:00N 33°46' W 118°16'0 0.0
2018-Aug-02 16:30N 33°46' W 118°16'0 0.0
2018-Aug-02 16:00N 33°46' W 118°16'0 0.0
2018-Aug-02 15:30N 33°46' W 118°16'0 0.0
2018-Aug-02 14:57N 33°46' W 118°16'0 0.0
2018-Aug-02 14:30N 33°46' W 118°16'0 0.0
2018-Aug-02 13:57N 33°46' W 118°16'0 0.0
2018-Aug-02 13:30N 33°46' W 118°16'0 0.0
2018-Aug-02 13:00N 33°46' W 118°16'0 0.0
2018-Aug-02 12:24N 33°46' W 118°16'0 0.0
2018-Aug-02 12:00N 33°46' W 118°16'0 0.0
2018-Aug-02 11:30N 33°46' W 118°16'0 0.0
2018-Aug-02 10:57N 33°46' W 118°16'0 0.0
2018-Aug-02 10:21N 33°46' W 118°16'0 0.0
2018-Aug-02 09:57N 33°46' W 118°16'0 0.0
2018-Aug-02 09:30N 33°46' W 118°16'0 0.0
2018-Aug-02 08:57N 33°46' W 118°16'0 0.0
2018-Aug-02 08:27N 33°46' W 118°16'0 0.0
2018-Aug-02 08:00N 33°46' W 118°16'0 0.0
2018-Aug-02 07:30N 33°46' W 118°16'0 0.0
2018-Aug-02 06:54N 33°46' W 118°16'0 0.0
2018-Aug-02 06:30N 33°46' W 118°16'0 0.0
2018-Aug-02 06:00N 33°46' W 118°16'0 0.0
2018-Aug-02 05:30N 33°46' W 118°16'0 0.0
2018-Aug-02 05:00N 33°46' W 118°16'0 0.0
2018-Aug-02 04:30N 33°46' W 118°16'0 0.0
2018-Aug-02 04:00N 33°46' W 118°16'0 0.0
2018-Aug-02 03:30N 33°46' W 118°16'0 0.0
2018-Aug-02 03:00N 33°46' W 118°16'0 0.9
2018-Aug-02 02:30N 33°45' W 118°16'1 2.9
2018-Aug-02 02:00N 33°44' W 118°16'3 5.4
2018-Aug-02 01:30N 33°43' W 118°13'2 4.7
2018-Aug-02 01:00N 33°46' W 118°13'1 0.9
2018-Aug-02 00:19N 33°46' W 118°13'0 0.0
2018-Aug-01 23:58N 33°46' W 118°13'0 0.0
2018-Aug-01 23:22N 33°46' W 118°13'0 0.0
2018-Aug-01 22:52N 33°46' W 118°13'0 0.0
2018-Aug-01 22:19N 33°46' W 118°13'0 0.0
2018-Aug-01 21:55N 33°46' W 118°13'0 0.0
2018-Aug-01 21:28N 33°46' W 118°13'0 0.0
2018-Aug-01 20:49N 33°46' W 118°13'0 0.0
2018-Aug-01 20:25N 33°46' W 118°13'0 0.0
2018-Aug-01 19:58N 33°46' W 118°13'0 0.0
2018-Aug-01 19:25N 33°46' W 118°13'0 0.0
2018-Aug-01 18:43N 33°46' W 118°13'0 0.0
2018-Aug-01 18:28N 33°46' W 118°13'0 0.0
2018-Aug-01 17:58N 33°46' W 118°13'0 0.0
2018-Aug-01 17:28N 33°46' W 118°13'0 0.0
2018-Aug-01 16:49N 33°46' W 118°13'0 0.0
2018-Aug-01 16:25N 33°46' W 118°13'0 0.0
2018-Aug-01 15:58N 33°46' W 118°13'0 0.0
2018-Aug-01 15:07N 33°46' W 118°13'0 0.0
2018-Aug-01 14:58N 33°46' W 118°13'0 0.0
2018-Aug-01 13:52N 33°46' W 118°13'0 0.0
2018-Aug-01 13:25N 33°46' W 118°13'0 0.0
2018-Aug-01 12:55N 33°46' W 118°13'0 0.0
2018-Aug-01 11:55N 33°46' W 118°13'0 0.0
2018-Aug-01 11:25N 33°46' W 118°13'0 0.0
2018-Aug-01 10:55N 33°46' W 118°13'0 0.0
2018-Aug-01 10:19N 33°46' W 118°13'0 0.0
2018-Aug-01 09:34N 33°46' W 118°13'0 0.0
2018-Aug-01 09:28N 33°46' W 118°13'0 0.0
2018-Aug-01 08:58N 33°46' W 118°13'0 0.0
2018-Aug-01 07:40N 33°46' W 118°13'0 0.0
2018-Aug-01 07:28N 33°46' W 118°13'0 0.0
2018-Aug-01 06:52N 33°46' W 118°13'0 0.0
2018-Aug-01 06:28N 33°46' W 118°13'0 0.0
2018-Aug-01 05:52N 33°46' W 118°13'0 0.0
2018-Aug-01 05:19N 33°46' W 118°13'0 0.0
2018-Aug-01 04:58N 33°46' W 118°13'0 0.0
2018-Aug-01 04:25N 33°46' W 118°13'0 0.0
2018-Aug-01 03:52N 33°46' W 118°13'0 0.0
2018-Aug-01 03:22N 33°46' W 118°13'0 0.0
2018-Aug-01 02:55N 33°46' W 118°13'0 0.0
2018-Aug-01 02:28N 33°46' W 118°13'0 0.0
2018-Aug-01 01:49N 33°46' W 118°13'0 0.0
2018-Aug-01 01:28N 33°46' W 118°13'0 0.0
2018-Aug-01 00:52N 33°46' W 118°13'0 0.0
2018-Jul-31 22:28N 33°46' W 118°13'0 0.0
2018-Jul-31 21:46N 33°46' W 118°13'0 0.0
2018-Jul-31 21:25N 33°46' W 118°13'0 0.0
2018-Jul-31 20:58N 33°46' W 118°13'0 0.0
2018-Jul-31 20:28N 33°46' W 118°13'0 0.0
2018-Jul-31 19:58N 33°46' W 118°13'0 0.0
2018-Jul-31 19:22N 33°46' W 118°13'0 0.0
2018-Jul-31 18:55N 33°46' W 118°13'0 0.0
2018-Jul-31 18:22N 33°46' W 118°13'0 0.0
2018-Jul-31 17:46N 33°46' W 118°13'0 0.0
2018-Jul-31 17:28N 33°46' W 118°13'0 0.0
2018-Jul-31 16:52N 33°46' W 118°13'0 0.4
2018-Jul-31 16:30N 33°46' W 118°13'1 2.8
2018-Jul-31 16:00N 33°45' W 118°13'3 5.7
2018-Jul-31 15:30N 33°43' W 118°11'3 5.9
2018-Jul-31 15:00N 33°40' W 118°12'3 5.2
2018-Jul-31 14:30N 33°38' W 118°14'3 5.3
2018-Jul-31 14:00N 33°36' W 118°16'3 5.5
2018-Jul-31 13:30N 33°36' W 118°20'3 5.4
2018-Jul-31 13:00N 33°36' W 118°23'3 5.4
2018-Jul-31 12:30N 33°36' W 118°26'3 5.4
2018-Jul-31 12:00N 33°36' W 118°29'3 5.3
2018-Jul-31 11:30N 33°36' W 118°32'3 6.3
2018-Jul-31 11:00N 33°36' W 118°36'3 6.0
2018-Jul-31 10:30N 33°37' W 118°40'3 6.0
2018-Jul-31 10:00N 33°37' W 118°43'3 5.9
2018-Jul-31 09:30N 33°37' W 118°47'4 8.0
2018-Jul-31 09:00N 33°37' W 118°52'611.4
2018-Jul-31 08:30N 33°37' W 118°59'611.4
2018-Jul-31 08:00N 33°38' W 119°05'611.8
2018-Jul-31 07:30N 33°37' W 119°13'611.5
2018-Jul-31 06:58N 33°37' W 119°20'511.3
2018-Jul-31 06:30N 33°37' W 119°26'611.5
2018-Jul-31 06:00N 33°37' W 119°33'611.7
2018-Jul-31 05:30N 33°37' W 119°40'611.4
2018-Jul-31 05:00N 33°37' W 119°47'611.5
2018-Jul-31 04:30N 33°36' W 119°54'611.7
2018-Jul-31 04:00N 33°36' W 120°01'611.3
2018-Jul-31 03:30N 33°36' W 120°08'611.3
2018-Jul-31 03:00N 33°36' W 120°15'611.0
2018-Jul-31 02:30N 33°36' W 120°21'510.1
2018-Jul-31 02:00N 33°36' W 120°27'4 7.9
2018-Jul-31 01:30N 33°36' W 120°32'611.8
2018-Jul-31 01:00N 33°37' W 120°39'612.1
2018-Jul-31 00:30N 33°37' W 120°46'712.5
2018-Jul-30 23:58N 33°38' W 120°54'612.4
2018-Jul-30 23:30N 33°38' W 121°01'712.2
2018-Jul-30 22:57N 33°38' W 121°09'612.1
2018-Jul-30 22:30N 33°38' W 121°16'611.9
2018-Jul-30 22:00N 33°39' W 121°23'612.0
2018-Jul-30 21:30N 33°39' W 121°30'612.3
2018-Jul-30 21:00N 33°39' W 121°38'712.4
2018-Jul-30 20:28N 33°40' W 121°45'612.3
2018-Jul-30 19:59N 33°40' W 121°53'612.1
2018-Jul-30 19:30N 33°40' W 121°60'5212.1
2018-Jul-30 15:15N 33°44' W 123°02'312.2
2018-Jul-30 15:00N 33°44' W 123°05'712.4
2018-Jul-30 14:25N 33°44' W 123°14'1712.3
2018-Jul-30 13:02N 33°45' W 123°34'9511.7
2018-Jul-30 04:55N 33°59' W 125°27'7 1.0
2018-Jul-29 21:42N 34°05' W 125°24'0 0.5
2018-Jul-29 21:29N 34°05' W 125°24'  

Dump ship's entire track history